sensor_id;sensor_type;location;lat;lon;timestamp;temperature;humidity
42245;DHT22;27912;51.828;5.688;2023-05-14T00:00:59;14.30;99.90
42245;DHT22;27912;51.828;5.688;2023-05-14T00:03:24;14.20;99.90
42245;DHT22;27912;51.828;5.688;2023-05-14T00:05:50;14.20;99.90
42245;DHT22;27912;51.828;5.688;2023-05-14T00:08:16;14.10;99.90
42245;DHT22;27912;51.828;5.688;2023-05-14T00:10:42;14.00;99.90
42245;DHT22;27912;51.828;5.688;2023-05-14T00:13:07;14.10;99.90
42245;DHT22;27912;51.828;5.688;2023-05-14T00:15:33;14.00;99.90
42245;DHT22;27912;51.828;5.688;2023-05-14T00:17:58;14.00;99.90
42245;DHT22;27912;51.828;5.688;2023-05-14T00:20:24;13.90;99.90
42245;DHT22;27912;51.828;5.688;2023-05-14T00:22:49;13.90;99.90
42245;DHT22;27912;51.828;5.688;2023-05-14T00:25:15;13.80;99.90
42245;DHT22;27912;51.828;5.688;2023-05-14T00:27:40;13.80;99.90
42245;DHT22;27912;51.828;5.688;2023-05-14T00:30:06;13.80;99.90
42245;DHT22;27912;51.828;5.688;2023-05-14T00:32:32;13.70;99.90
42245;DHT22;27912;51.828;5.688;2023-05-14T00:34:57;13.70;99.90
42245;DHT22;27912;51.828;5.688;2023-05-14T00:37:23;13.60;99.90
42245;DHT22;27912;51.828;5.688;2023-05-14T00:39:49;13.60;99.90
42245;DHT22;27912;51.828;5.688;2023-05-14T00:42:14;13.60;99.90
42245;DHT22;27912;51.828;5.688;2023-05-14T00:44:40;13.50;99.90
42245;DHT22;27912;51.828;5.688;2023-05-14T00:47:06;13.40;99.90
42245;DHT22;27912;51.828;5.688;2023-05-14T00:49:32;13.50;99.90
42245;DHT22;27912;51.828;5.688;2023-05-14T00:51:58;13.40;99.90
42245;DHT22;27912;51.828;5.688;2023-05-14T00:54:25;13.40;99.90
42245;DHT22;27912;51.828;5.688;2023-05-14T00:56:51;13.30;99.90
42245;DHT22;27912;51.828;5.688;2023-05-14T00:59:17;13.20;99.90
42245;DHT22;27912;51.828;5.688;2023-05-14T01:01:42;13.20;99.90
42245;DHT22;27912;51.828;5.688;2023-05-14T01:04:09;13.10;99.90
42245;DHT22;27912;51.828;5.688;2023-05-14T01:07:11;13.10;99.90
42245;DHT22;27912;51.828;5.688;2023-05-14T01:09:54;13.00;99.90
42245;DHT22;27912;51.828;5.688;2023-05-14T01:15:10;12.90;99.90
42245;DHT22;27912;51.828;5.688;2023-05-14T01:17:44;12.90;99.90
42245;DHT22;27912;51.828;5.688;2023-05-14T01:20:10;12.80;99.90
42245;DHT22;27912;51.828;5.688;2023-05-14T01:22:36;12.80;99.90
42245;DHT22;27912;51.828;5.688;2023-05-14T01:25:03;12.80;99.90
42245;DHT22;27912;51.828;5.688;2023-05-14T01:30:36;12.80;99.90
42245;DHT22;27912;51.828;5.688;2023-05-14T01:33:05;12.70;99.90
42245;DHT22;27912;51.828;5.688;2023-05-14T01:35:33;12.70;99.90
42245;DHT22;27912;51.828;5.688;2023-05-14T01:38:01;12.70;99.90
42245;DHT22;27912;51.828;5.688;2023-05-14T01:40:28;12.70;99.90
42245;DHT22;27912;51.828;5.688;2023-05-14T01:42:54;12.60;99.90
42245;DHT22;27912;51.828;5.688;2023-05-14T01:45:21;12.60;99.90
42245;DHT22;27912;51.828;5.688;2023-05-14T01:47:47;12.60;99.90
42245;DHT22;27912;51.828;5.688;2023-05-14T01:50:13;12.60;99.90
42245;DHT22;27912;51.828;5.688;2023-05-14T01:52:38;12.50;99.90
42245;DHT22;27912;51.828;5.688;2023-05-14T01:55:04;12.50;99.90
42245;DHT22;27912;51.828;5.688;2023-05-14T01:57:30;12.50;99.90
42245;DHT22;27912;51.828;5.688;2023-05-14T01:59:56;12.50;99.90
42245;DHT22;27912;51.828;5.688;2023-05-14T02:02:21;12.40;99.90
42245;DHT22;27912;51.828;5.688;2023-05-14T02:04:47;12.40;99.90
42245;DHT22;27912;51.828;5.688;2023-05-14T02:07:13;12.30;99.90
42245;DHT22;27912;51.828;5.688;2023-05-14T02:09:38;12.30;99.90
42245;DHT22;27912;51.828;5.688;2023-05-14T02:12:07;12.20;99.90
42245;DHT22;27912;51.828;5.688;2023-05-14T02:14:33;12.20;99.90
42245;DHT22;27912;51.828;5.688;2023-05-14T02:16:58;12.20;99.90
42245;DHT22;27912;51.828;5.688;2023-05-14T02:19:24;12.10;99.90
42245;DHT22;27912;51.828;5.688;2023-05-14T02:21:49;12.10;99.90
42245;DHT22;27912;51.828;5.688;2023-05-14T02:24:15;12.00;99.90
42245;DHT22;27912;51.828;5.688;2023-05-14T02:26:40;12.00;99.90
42245;DHT22;27912;51.828;5.688;2023-05-14T02:29:06;12.00;99.90
42245;DHT22;27912;51.828;5.688;2023-05-14T02:31:32;11.90;99.90
42245;DHT22;27912;51.828;5.688;2023-05-14T02:34:00;11.80;99.90
42245;DHT22;27912;51.828;5.688;2023-05-14T02:36:25;11.80;99.90
42245;DHT22;27912;51.828;5.688;2023-05-14T02:38:51;11.80;99.90
42245;DHT22;27912;51.828;5.688;2023-05-14T02:41:16;11.70;99.90
42245;DHT22;27912;51.828;5.688;2023-05-14T02:43:42;11.70;99.90
42245;DHT22;27912;51.828;5.688;2023-05-14T02:46:08;11.70;99.90
42245;DHT22;27912;51.828;5.688;2023-05-14T02:48:33;11.60;99.90
42245;DHT22;27912;51.828;5.688;2023-05-14T02:50:59;11.60;99.90
42245;DHT22;27912;51.828;5.688;2023-05-14T02:53:24;11.50;99.90
42245;DHT22;27912;51.828;5.688;2023-05-14T02:55:50;11.50;99.90
42245;DHT22;27912;51.828;5.688;2023-05-14T02:58:15;11.50;99.90
42245;DHT22;27912;51.828;5.688;2023-05-14T03:00:41;11.40;99.90
42245;DHT22;27912;51.828;5.688;2023-05-14T03:03:07;11.40;99.90
42245;DHT22;27912;51.828;5.688;2023-05-14T03:05:32;11.40;99.90
42245;DHT22;27912;51.828;5.688;2023-05-14T03:07:58;11.30;99.90
42245;DHT22;27912;51.828;5.688;2023-05-14T03:10:23;11.30;99.90
42245;DHT22;27912;51.828;5.688;2023-05-14T03:12:49;11.20;99.90
42245;DHT22;27912;51.828;5.688;2023-05-14T03:15:14;11.20;99.90
42245;DHT22;27912;51.828;5.688;2023-05-14T03:17:40;11.20;99.90
42245;DHT22;27912;51.828;5.688;2023-05-14T03:20:06;11.20;99.90
42245;DHT22;27912;51.828;5.688;2023-05-14T03:22:31;11.20;99.90
42245;DHT22;27912;51.828;5.688;2023-05-14T03:24:57;11.10;99.90
42245;DHT22;27912;51.828;5.688;2023-05-14T03:27:22;11.10;99.90
42245;DHT22;27912;51.828;5.688;2023-05-14T03:29:48;11.00;99.90
42245;DHT22;27912;51.828;5.688;2023-05-14T03:32:13;11.00;99.90
42245;DHT22;27912;51.828;5.688;2023-05-14T03:34:39;11.10;99.90
42245;DHT22;27912;51.828;5.688;2023-05-14T03:37:05;11.00;99.90
42245;DHT22;27912;51.828;5.688;2023-05-14T03:39:30;11.00;99.90
42245;DHT22;27912;51.828;5.688;2023-05-14T03:41:56;11.00;99.90
42245;DHT22;27912;51.828;5.688;2023-05-14T03:44:23;10.90;99.90
42245;DHT22;27912;51.828;5.688;2023-05-14T03:46:49;10.90;99.90
42245;DHT22;27912;51.828;5.688;2023-05-14T03:49:14;10.90;99.90
42245;DHT22;27912;51.828;5.688;2023-05-14T03:51:40;10.90;99.90
42245;DHT22;27912;51.828;5.688;2023-05-14T03:54:06;10.80;99.90
42245;DHT22;27912;51.828;5.688;2023-05-14T03:56:31;10.80;99.90
42245;DHT22;27912;51.828;5.688;2023-05-14T03:58:57;10.70;99.90
42245;DHT22;27912;51.828;5.688;2023-05-14T04:01:22;10.70;99.90
42245;DHT22;27912;51.828;5.688;2023-05-14T04:03:48;10.70;99.90
42245;DHT22;27912;51.828;5.688;2023-05-14T04:06:13;10.70;99.90
42245;DHT22;27912;51.828;5.688;2023-05-14T04:08:39;10.70;99.90
42245;DHT22;27912;51.828;5.688;2023-05-14T04:11:04;10.60;99.90
42245;DHT22;27912;51.828;5.688;2023-05-14T04:13:30;10.70;99.90
42245;DHT22;27912;51.828;5.688;2023-05-14T04:15:55;10.60;99.90
42245;DHT22;27912;51.828;5.688;2023-05-14T04:18:21;10.60;99.90
42245;DHT22;27912;51.828;5.688;2023-05-14T04:20:46;10.60;99.90
42245;DHT22;27912;51.828;5.688;2023-05-14T04:23:12;10.60;99.90
42245;DHT22;27912;51.828;5.688;2023-05-14T04:25:37;10.60;99.90
42245;DHT22;27912;51.828;5.688;2023-05-14T04:28:03;10.60;99.90
42245;DHT22;27912;51.828;5.688;2023-05-14T04:30:29;10.60;99.90
42245;DHT22;27912;51.828;5.688;2023-05-14T04:32:54;10.60;99.90
42245;DHT22;27912;51.828;5.688;2023-05-14T04:35:20;10.60;99.90
42245;DHT22;27912;51.828;5.688;2023-05-14T04:37:46;10.60;99.90
42245;DHT22;27912;51.828;5.688;2023-05-14T04:40:13;10.60;99.90
42245;DHT22;27912;51.828;5.688;2023-05-14T04:42:41;10.60;99.90
42245;DHT22;27912;51.828;5.688;2023-05-14T04:45:07;10.70;99.90
42245;DHT22;27912;51.828;5.688;2023-05-14T04:47:33;10.70;99.90
42245;DHT22;27912;51.828;5.688;2023-05-14T04:49:58;10.70;99.90
42245;DHT22;27912;51.828;5.688;2023-05-14T04:52:24;10.70;99.90
42245;DHT22;27912;51.828;5.688;2023-05-14T04:54:53;10.70;99.90
42245;DHT22;27912;51.828;5.688;2023-05-14T04:57:21;10.80;99.90
42245;DHT22;27912;51.828;5.688;2023-05-14T04:59:46;10.80;99.90
42245;DHT22;27912;51.828;5.688;2023-05-14T05:02:12;10.80;99.90
42245;DHT22;27912;51.828;5.688;2023-05-14T05:04:38;10.90;99.90
42245;DHT22;27912;51.828;5.688;2023-05-14T05:07:03;11.00;99.90
42245;DHT22;27912;51.828;5.688;2023-05-14T05:09:30;11.00;99.90
42245;DHT22;27912;51.828;5.688;2023-05-14T05:11:55;11.10;99.90
42245;DHT22;27912;51.828;5.688;2023-05-14T05:14:21;11.10;99.90
42245;DHT22;27912;51.828;5.688;2023-05-14T05:16:46;11.20;99.90
42245;DHT22;27912;51.828;5.688;2023-05-14T05:19:12;11.30;99.90
42245;DHT22;27912;51.828;5.688;2023-05-14T05:21:37;11.40;99.90
42245;DHT22;27912;51.828;5.688;2023-05-14T05:24:05;11.50;99.90
42245;DHT22;27912;51.828;5.688;2023-05-14T05:26:31;11.70;99.90
42245;DHT22;27912;51.828;5.688;2023-05-14T05:28:57;11.90;99.90
42245;DHT22;27912;51.828;5.688;2023-05-14T05:31:22;11.90;99.90
42245;DHT22;27912;51.828;5.688;2023-05-14T05:33:48;11.90;99.90
42245;DHT22;27912;51.828;5.688;2023-05-14T05:36:13;11.90;99.90
42245;DHT22;27912;51.828;5.688;2023-05-14T05:38:39;11.90;99.90
42245;DHT22;27912;51.828;5.688;2023-05-14T05:41:04;11.80;99.90
42245;DHT22;27912;51.828;5.688;2023-05-14T05:43:30;11.80;99.90
42245;DHT22;27912;51.828;5.688;2023-05-14T05:45:58;11.80;99.90
42245;DHT22;27912;51.828;5.688;2023-05-14T05:48:24;11.80;99.90
42245;DHT22;27912;51.828;5.688;2023-05-14T05:50:49;11.90;99.90
42245;DHT22;27912;51.828;5.688;2023-05-14T05:53:15;12.00;99.90
42245;DHT22;27912;51.828;5.688;2023-05-14T05:55:41;12.10;99.90
42245;DHT22;27912;51.828;5.688;2023-05-14T05:58:07;12.20;99.90
42245;DHT22;27912;51.828;5.688;2023-05-14T06:00:32;12.30;99.90
42245;DHT22;27912;51.828;5.688;2023-05-14T06:02:58;12.40;99.90
42245;DHT22;27912;51.828;5.688;2023-05-14T06:05:24;12.50;99.90
42245;DHT22;27912;51.828;5.688;2023-05-14T06:07:50;12.70;99.90
42245;DHT22;27912;51.828;5.688;2023-05-14T06:10:15;12.80;99.90
42245;DHT22;27912;51.828;5.688;2023-05-14T06:12:41;12.90;99.90
42245;DHT22;27912;51.828;5.688;2023-05-14T06:15:07;13.00;99.90
42245;DHT22;27912;51.828;5.688;2023-05-14T06:17:32;13.00;99.90
42245;DHT22;27912;51.828;5.688;2023-05-14T06:19:58;13.10;99.90
42245;DHT22;27912;51.828;5.688;2023-05-14T06:22:23;13.20;99.90
42245;DHT22;27912;51.828;5.688;2023-05-14T06:24:49;13.30;99.90
42245;DHT22;27912;51.828;5.688;2023-05-14T06:27:15;13.40;99.90
42245;DHT22;27912;51.828;5.688;2023-05-14T06:29:40;13.60;99.90
42245;DHT22;27912;51.828;5.688;2023-05-14T06:32:06;13.70;99.90
42245;DHT22;27912;51.828;5.688;2023-05-14T06:34:32;13.80;99.90
42245;DHT22;27912;51.828;5.688;2023-05-14T06:36:58;14.00;99.90
42245;DHT22;27912;51.828;5.688;2023-05-14T06:39:24;14.20;99.90
42245;DHT22;27912;51.828;5.688;2023-05-14T06:41:50;14.20;99.90
42245;DHT22;27912;51.828;5.688;2023-05-14T06:44:17;14.40;99.90
42245;DHT22;27912;51.828;5.688;2023-05-14T06:46:43;14.50;99.90
42245;DHT22;27912;51.828;5.688;2023-05-14T06:49:09;14.60;99.90
42245;DHT22;27912;51.828;5.688;2023-05-14T06:51:34;14.60;99.90
42245;DHT22;27912;51.828;5.688;2023-05-14T06:54:00;14.60;99.90
42245;DHT22;27912;51.828;5.688;2023-05-14T06:56:25;14.70;99.90
42245;DHT22;27912;51.828;5.688;2023-05-14T06:58:51;14.70;99.90
42245;DHT22;27912;51.828;5.688;2023-05-14T07:01:16;14.70;99.90
42245;DHT22;27912;51.828;5.688;2023-05-14T07:03:42;14.70;99.90
42245;DHT22;27912;51.828;5.688;2023-05-14T07:06:08;14.70;99.90
42245;DHT22;27912;51.828;5.688;2023-05-14T07:08:33;14.70;99.90
42245;DHT22;27912;51.828;5.688;2023-05-14T07:10:59;14.80;99.90
42245;DHT22;27912;51.828;5.688;2023-05-14T07:13:25;14.80;99.90
42245;DHT22;27912;51.828;5.688;2023-05-14T07:15:52;14.90;99.90
42245;DHT22;27912;51.828;5.688;2023-05-14T07:18:20;14.90;99.90
42245;DHT22;27912;51.828;5.688;2023-05-14T07:20:46;15.00;99.90
42245;DHT22;27912;51.828;5.688;2023-05-14T07:23:11;15.00;99.90
42245;DHT22;27912;51.828;5.688;2023-05-14T07:25:37;15.10;99.90
42245;DHT22;27912;51.828;5.688;2023-05-14T07:28:03;15.20;99.90
42245;DHT22;27912;51.828;5.688;2023-05-14T07:30:29;15.30;99.90
42245;DHT22;27912;51.828;5.688;2023-05-14T07:32:54;15.40;99.90
42245;DHT22;27912;51.828;5.688;2023-05-14T07:35:20;15.60;99.90
42245;DHT22;27912;51.828;5.688;2023-05-14T07:37:46;15.90;99.90
42245;DHT22;27912;51.828;5.688;2023-05-14T07:40:11;16.00;99.90
42245;DHT22;27912;51.828;5.688;2023-05-14T07:42:37;16.20;99.90
42245;DHT22;27912;51.828;5.688;2023-05-14T07:45:03;16.20;99.90
42245;DHT22;27912;51.828;5.688;2023-05-14T07:47:30;16.10;99.90
42245;DHT22;27912;51.828;5.688;2023-05-14T07:49:56;16.00;99.90
42245;DHT22;27912;51.828;5.688;2023-05-14T07:52:22;16.00;99.90
42245;DHT22;27912;51.828;5.688;2023-05-14T07:54:48;16.10;99.90
42245;DHT22;27912;51.828;5.688;2023-05-14T07:57:14;16.20;99.90
42245;DHT22;27912;51.828;5.688;2023-05-14T07:59:39;16.20;99.90
42245;DHT22;27912;51.828;5.688;2023-05-14T08:02:05;16.20;99.90
42245;DHT22;27912;51.828;5.688;2023-05-14T08:04:31;16.40;99.90
42245;DHT22;27912;51.828;5.688;2023-05-14T08:06:56;16.50;99.90
42245;DHT22;27912;51.828;5.688;2023-05-14T08:09:22;16.60;99.90
42245;DHT22;27912;51.828;5.688;2023-05-14T08:11:48;16.70;99.90
42245;DHT22;27912;51.828;5.688;2023-05-14T08:14:13;16.80;99.90
42245;DHT22;27912;51.828;5.688;2023-05-14T08:16:39;16.90;99.90
42245;DHT22;27912;51.828;5.688;2023-05-14T08:19:04;17.00;99.90
42245;DHT22;27912;51.828;5.688;2023-05-14T08:21:30;16.90;99.90
42245;DHT22;27912;51.828;5.688;2023-05-14T08:23:56;17.00;99.90
42245;DHT22;27912;51.828;5.688;2023-05-14T08:26:22;17.20;99.90
42245;DHT22;27912;51.828;5.688;2023-05-14T08:28:48;17.30;99.90
42245;DHT22;27912;51.828;5.688;2023-05-14T08:31:13;17.50;99.90
42245;DHT22;27912;51.828;5.688;2023-05-14T08:33:39;17.60;99.90
42245;DHT22;27912;51.828;5.688;2023-05-14T08:36:05;17.70;99.90
42245;DHT22;27912;51.828;5.688;2023-05-14T08:38:31;17.70;99.90
42245;DHT22;27912;51.828;5.688;2023-05-14T08:40:58;17.80;99.90
42245;DHT22;27912;51.828;5.688;2023-05-14T08:43:34;17.90;99.90
42245;DHT22;27912;51.828;5.688;2023-05-14T08:46:04;17.80;99.90
42245;DHT22;27912;51.828;5.688;2023-05-14T08:48:32;17.80;99.90
42245;DHT22;27912;51.828;5.688;2023-05-14T08:50:58;17.90;99.90
42245;DHT22;27912;51.828;5.688;2023-05-14T08:53:25;17.90;99.90
42245;DHT22;27912;51.828;5.688;2023-05-14T08:55:51;18.00;99.90
42245;DHT22;27912;51.828;5.688;2023-05-14T08:58:18;18.20;99.90
42245;DHT22;27912;51.828;5.688;2023-05-14T09:00:44;18.30;99.90
42245;DHT22;27912;51.828;5.688;2023-05-14T09:03:10;18.40;99.90
42245;DHT22;27912;51.828;5.688;2023-05-14T09:05:36;18.40;99.90
42245;DHT22;27912;51.828;5.688;2023-05-14T09:08:02;18.40;99.90
42245;DHT22;27912;51.828;5.688;2023-05-14T09:10:28;18.60;99.90
42245;DHT22;27912;51.828;5.688;2023-05-14T09:12:53;18.60;99.90
42245;DHT22;27912;51.828;5.688;2023-05-14T09:15:19;18.60;99.90
42245;DHT22;27912;51.828;5.688;2023-05-14T09:17:45;18.60;99.90
42245;DHT22;27912;51.828;5.688;2023-05-14T09:20:13;18.70;99.90
42245;DHT22;27912;51.828;5.688;2023-05-14T09:22:39;18.80;99.90
42245;DHT22;27912;51.828;5.688;2023-05-14T09:25:07;19.00;99.90
42245;DHT22;27912;51.828;5.688;2023-05-14T09:27:34;19.00;99.90
42245;DHT22;27912;51.828;5.688;2023-05-14T09:32:35;19.10;99.90
42245;DHT22;27912;51.828;5.688;2023-05-14T09:35:11;19.20;99.90
42245;DHT22;27912;51.828;5.688;2023-05-14T09:37:40;19.30;99.90
42245;DHT22;27912;51.828;5.688;2023-05-14T09:40:07;19.50;99.90
42245;DHT22;27912;51.828;5.688;2023-05-14T09:42:36;19.50;99.90
42245;DHT22;27912;51.828;5.688;2023-05-14T09:45:02;19.50;99.90
42245;DHT22;27912;51.828;5.688;2023-05-14T09:47:29;19.40;99.90
42245;DHT22;27912;51.828;5.688;2023-05-14T09:49:56;19.40;99.90
42245;DHT22;27912;51.828;5.688;2023-05-14T09:52:25;19.50;99.90
42245;DHT22;27912;51.828;5.688;2023-05-14T09:54:53;19.70;99.90
42245;DHT22;27912;51.828;5.688;2023-05-14T09:57:19;19.80;99.90
42245;DHT22;27912;51.828;5.688;2023-05-14T09:59:45;19.80;99.90
42245;DHT22;27912;51.828;5.688;2023-05-14T10:02:20;19.80;99.90
42245;DHT22;27912;51.828;5.688;2023-05-14T10:04:48;19.80;99.90
42245;DHT22;27912;51.828;5.688;2023-05-14T10:07:18;19.90;99.90
42245;DHT22;27912;51.828;5.688;2023-05-14T10:09:45;20.00;99.90
42245;DHT22;27912;51.828;5.688;2023-05-14T10:12:12;20.10;99.90
42245;DHT22;27912;51.828;5.688;2023-05-14T10:14:41;20.30;99.90
42245;DHT22;27912;51.828;5.688;2023-05-14T10:17:08;20.40;99.90
42245;DHT22;27912;51.828;5.688;2023-05-14T10:19:53;20.50;99.90
42245;DHT22;27912;51.828;5.688;2023-05-14T10:22:26;20.60;99.90
42245;DHT22;27912;51.828;5.688;2023-05-14T10:24:55;20.60;99.90
42245;DHT22;27912;51.828;5.688;2023-05-14T10:27:22;20.70;99.90
42245;DHT22;27912;51.828;5.688;2023-05-14T10:29:51;20.70;99.90
42245;DHT22;27912;51.828;5.688;2023-05-14T10:32:24;20.80;99.90
42245;DHT22;27912;51.828;5.688;2023-05-14T10:34:51;20.70;99.90
42245;DHT22;27912;51.828;5.688;2023-05-14T10:37:26;20.80;99.90
42245;DHT22;27912;51.828;5.688;2023-05-14T10:39:53;20.80;99.90
42245;DHT22;27912;51.828;5.688;2023-05-14T10:42:24;20.90;99.90
42245;DHT22;27912;51.828;5.688;2023-05-14T10:44:56;21.00;99.90
42245;DHT22;27912;51.828;5.688;2023-05-14T10:47:30;21.00;99.90
42245;DHT22;27912;51.828;5.688;2023-05-14T10:49:58;21.00;99.90
42245;DHT22;27912;51.828;5.688;2023-05-14T10:52:24;20.90;99.90
42245;DHT22;27912;51.828;5.688;2023-05-14T10:57:21;21.00;99.90
42245;DHT22;27912;51.828;5.688;2023-05-14T10:59:49;21.10;99.90
42245;DHT22;27912;51.828;5.688;2023-05-14T11:02:29;21.30;99.90
42245;DHT22;27912;51.828;5.688;2023-05-14T11:05:06;21.30;99.90
42245;DHT22;27912;51.828;5.688;2023-05-14T11:07:38;21.30;99.90
42245;DHT22;27912;51.828;5.688;2023-05-14T11:10:05;21.30;99.90
42245;DHT22;27912;51.828;5.688;2023-05-14T11:12:33;21.40;99.90
42245;DHT22;27912;51.828;5.688;2023-05-14T11:15:01;21.40;99.90
42245;DHT22;27912;51.828;5.688;2023-05-14T11:17:28;21.60;99.30
42245;DHT22;27912;51.828;5.688;2023-05-14T11:19:55;21.80;98.90
42245;DHT22;27912;51.828;5.688;2023-05-14T11:22:21;22.10;99.00
42245;DHT22;27912;51.828;5.688;2023-05-14T11:24:47;22.40;98.20
42245;DHT22;27912;51.828;5.688;2023-05-14T11:27:13;22.60;97.20
42245;DHT22;27912;51.828;5.688;2023-05-14T11:29:42;22.60;96.40
42245;DHT22;27912;51.828;5.688;2023-05-14T11:32:09;22.50;95.90
42245;DHT22;27912;51.828;5.688;2023-05-14T11:34:34;22.50;94.80
42245;DHT22;27912;51.828;5.688;2023-05-14T11:37:02;22.50;94.10
42245;DHT22;27912;51.828;5.688;2023-05-14T11:39:29;22.50;93.70
42245;DHT22;27912;51.828;5.688;2023-05-14T11:41:56;22.40;92.80
42245;DHT22;27912;51.828;5.688;2023-05-14T11:44:23;22.40;91.50
42245;DHT22;27912;51.828;5.688;2023-05-14T11:46:55;22.50;91.60
42245;DHT22;27912;51.828;5.688;2023-05-14T11:49:25;22.40;90.90
42245;DHT22;27912;51.828;5.688;2023-05-14T11:51:57;22.30;90.20
42245;DHT22;27912;51.828;5.688;2023-05-14T11:54:28;22.40;91.20
42245;DHT22;27912;51.828;5.688;2023-05-14T11:56:55;22.50;90.80
42245;DHT22;27912;51.828;5.688;2023-05-14T11:59:23;22.70;90.50
42245;DHT22;27912;51.828;5.688;2023-05-14T12:01:50;22.90;90.00
42245;DHT22;27912;51.828;5.688;2023-05-14T12:04:18;23.00;89.70
42245;DHT22;27912;51.828;5.688;2023-05-14T12:06:50;23.20;88.70
42245;DHT22;27912;51.828;5.688;2023-05-14T12:09:17;23.40;88.30
42245;DHT22;27912;51.828;5.688;2023-05-14T12:11:47;23.60;81.80
42245;DHT22;27912;51.828;5.688;2023-05-14T12:14:20;23.70;80.70
42245;DHT22;27912;51.828;5.688;2023-05-14T12:16:47;23.90;79.60
42245;DHT22;27912;51.828;5.688;2023-05-14T12:19:14;24.10;80.50
42245;DHT22;27912;51.828;5.688;2023-05-14T12:21:42;24.20;80.10
42245;DHT22;27912;51.828;5.688;2023-05-14T12:24:12;24.20;80.60
42245;DHT22;27912;51.828;5.688;2023-05-14T12:26:39;24.20;76.00
42245;DHT22;27912;51.828;5.688;2023-05-14T12:29:12;24.10;78.10
42245;DHT22;27912;51.828;5.688;2023-05-14T12:31:47;24.00;78.70
42245;DHT22;27912;51.828;5.688;2023-05-14T12:34:13;23.90;78.10
42245;DHT22;27912;51.828;5.688;2023-05-14T12:36:39;23.70;77.60
42245;DHT22;27912;51.828;5.688;2023-05-14T12:39:04;23.50;77.70
42245;DHT22;27912;51.828;5.688;2023-05-14T12:41:30;23.30;78.90
42245;DHT22;27912;51.828;5.688;2023-05-14T12:43:56;23.20;79.30
42245;DHT22;27912;51.828;5.688;2023-05-14T12:46:22;23.20;79.50
42245;DHT22;27912;51.828;5.688;2023-05-14T12:48:48;23.20;79.50
42245;DHT22;27912;51.828;5.688;2023-05-14T12:51:14;23.10;81.00
42245;DHT22;27912;51.828;5.688;2023-05-14T12:53:39;23.10;81.60
42245;DHT22;27912;51.828;5.688;2023-05-14T12:56:06;23.00;81.40
42245;DHT22;27912;51.828;5.688;2023-05-14T12:58:31;23.00;81.40
42245;DHT22;27912;51.828;5.688;2023-05-14T13:00:57;22.90;82.50
42245;DHT22;27912;51.828;5.688;2023-05-14T13:03:22;23.00;82.00
42245;DHT22;27912;51.828;5.688;2023-05-14T13:05:50;23.00;82.10
42245;DHT22;27912;51.828;5.688;2023-05-14T13:08:16;23.00;81.70
42245;DHT22;27912;51.828;5.688;2023-05-14T13:10:43;22.90;81.40
42245;DHT22;27912;51.828;5.688;2023-05-14T13:13:11;22.90;82.40
42245;DHT22;27912;51.828;5.688;2023-05-14T13:15:37;22.80;82.60
42245;DHT22;27912;51.828;5.688;2023-05-14T13:18:03;22.70;82.30
42245;DHT22;27912;51.828;5.688;2023-05-14T13:20:29;22.70;82.60
42245;DHT22;27912;51.828;5.688;2023-05-14T13:22:55;22.60;81.00
42245;DHT22;27912;51.828;5.688;2023-05-14T13:25:21;22.50;80.20
42245;DHT22;27912;51.828;5.688;2023-05-14T13:27:47;22.30;79.70
42245;DHT22;27912;51.828;5.688;2023-05-14T13:30:19;22.20;80.70
42245;DHT22;27912;51.828;5.688;2023-05-14T13:35:32;22.10;81.80
42245;DHT22;27912;51.828;5.688;2023-05-14T13:37:58;22.00;82.50
42245;DHT22;27912;51.828;5.688;2023-05-14T13:40:24;22.00;83.40
42245;DHT22;27912;51.828;5.688;2023-05-14T13:42:49;21.90;84.20
42245;DHT22;27912;51.828;5.688;2023-05-14T13:45:15;21.90;84.50
42245;DHT22;27912;51.828;5.688;2023-05-14T13:47:41;21.70;84.80
42245;DHT22;27912;51.828;5.688;2023-05-14T13:50:06;21.40;84.30
42245;DHT22;27912;51.828;5.688;2023-05-14T13:52:32;21.10;81.30
42245;DHT22;27912;51.828;5.688;2023-05-14T13:54:58;20.70;76.70
42245;DHT22;27912;51.828;5.688;2023-05-14T13:57:23;20.50;78.00
42245;DHT22;27912;51.828;5.688;2023-05-14T13:59:49;20.30;78.00
42245;DHT22;27912;51.828;5.688;2023-05-14T14:02:14;20.10;79.90
42245;DHT22;27912;51.828;5.688;2023-05-14T14:04:43;19.90;82.50
42245;DHT22;27912;51.828;5.688;2023-05-14T14:07:09;19.70;84.80
42245;DHT22;27912;51.828;5.688;2023-05-14T14:09:34;19.30;87.20
42245;DHT22;27912;51.828;5.688;2023-05-14T14:12:02;19.00;90.00
42245;DHT22;27912;51.828;5.688;2023-05-14T14:14:28;18.70;91.40
42245;DHT22;27912;51.828;5.688;2023-05-14T14:16:54;18.60;92.90
42245;DHT22;27912;51.828;5.688;2023-05-14T14:19:19;18.60;93.50
42245;DHT22;27912;51.828;5.688;2023-05-14T14:21:45;18.70;93.80
42245;DHT22;27912;51.828;5.688;2023-05-14T14:24:11;18.90;94.00
42245;DHT22;27912;51.828;5.688;2023-05-14T14:26:36;19.10;94.10
42245;DHT22;27912;51.828;5.688;2023-05-14T14:29:02;19.30;94.70
42245;DHT22;27912;51.828;5.688;2023-05-14T14:31:28;19.50;94.40
42245;DHT22;27912;51.828;5.688;2023-05-14T14:34:00;19.60;94.90
42245;DHT22;27912;51.828;5.688;2023-05-14T14:36:26;19.80;95.20
42245;DHT22;27912;51.828;5.688;2023-05-14T14:38:53;19.80;95.60
42245;DHT22;27912;51.828;5.688;2023-05-14T14:41:18;19.90;95.90
42245;DHT22;27912;51.828;5.688;2023-05-14T14:43:44;19.90;96.80
42245;DHT22;27912;51.828;5.688;2023-05-14T14:46:09;19.90;96.70
42245;DHT22;27912;51.828;5.688;2023-05-14T14:48:35;19.80;96.80
42245;DHT22;27912;51.828;5.688;2023-05-14T14:51:07;19.80;98.60
42245;DHT22;27912;51.828;5.688;2023-05-14T14:53:34;19.80;99.60
42245;DHT22;27912;51.828;5.688;2023-05-14T14:56:04;19.80;99.90
42245;DHT22;27912;51.828;5.688;2023-05-14T14:58:29;19.70;99.90
42245;DHT22;27912;51.828;5.688;2023-05-14T15:00:56;19.70;99.90
42245;DHT22;27912;51.828;5.688;2023-05-14T15:03:23;19.70;99.90
42245;DHT22;27912;51.828;5.688;2023-05-14T15:05:49;19.70;99.90
42245;DHT22;27912;51.828;5.688;2023-05-14T15:08:16;19.70;99.90
42245;DHT22;27912;51.828;5.688;2023-05-14T15:10:42;19.70;99.90
42245;DHT22;27912;51.828;5.688;2023-05-14T15:13:08;19.60;99.90
42245;DHT22;27912;51.828;5.688;2023-05-14T15:15:34;19.60;99.90
42245;DHT22;27912;51.828;5.688;2023-05-14T15:18:01;19.60;99.90
42245;DHT22;27912;51.828;5.688;2023-05-14T15:20:27;19.70;99.90
42245;DHT22;27912;51.828;5.688;2023-05-14T15:22:53;19.80;99.90
42245;DHT22;27912;51.828;5.688;2023-05-14T15:25:20;19.90;99.90
42245;DHT22;27912;51.828;5.688;2023-05-14T15:27:45;20.00;99.90
42245;DHT22;27912;51.828;5.688;2023-05-14T15:30:12;20.10;99.90
42245;DHT22;27912;51.828;5.688;2023-05-14T15:32:37;20.20;99.90
42245;DHT22;27912;51.828;5.688;2023-05-14T15:35:03;20.40;99.90
42245;DHT22;27912;51.828;5.688;2023-05-14T15:37:37;20.50;99.90
42245;DHT22;27912;51.828;5.688;2023-05-14T15:40:04;20.80;99.90